Flight Track Log - Related Links

Times and Time Zones

All times are in EDT time to prevent confusion due to time zone crossing. See the UAL4234 flight status page for this flight to view local times or setup timezone preferences in your user account.

Time Position Orientation Groundspeed Altitude Reporting Facility
EDT Latitude Longitude Course Direction KTS MPH feet Rate Location/Type
Sun 05:01:05 PM 29.9617 -95.3436 97° East 171 197 600  Level Houston Center
Sun 05:02:13 PM 29.9469 -95.2731 104° East 245 282 2,900 1,581 Climbing Houston Center
Sun 05:03:14 PM 29.9411 -95.1894 95° East 272 313 4,000 1,623 Climbing Houston Center
Sun 05:04:15 PM 29.9319 -95.0892 96° East 299 344 6,200 2,341 Climbing Houston Center
Sun 05:05:00 PM 29.8971 -94.6398 97° East  Level FlightAware Approximate
Sun 05:05:17 PM 29.9228 -94.9939 96° East 304 350 8,800  Level Houston Center
Sun 05:06:00 PM 29.8817 -94.5008 97° East  Level FlightAware Approximate
Sun 05:06:29 PM 29.9139 -94.8806 95° East 310 357 10,800  Level Houston Center
Sun 05:07:31 PM 29.9036 -94.7656 96° East 349 402 12,000 1,344 Climbing Houston Center
Sun 05:08:34 PM 29.8931 -94.6433 96° East 374 430 13,600 1,488 Climbing Houston Center
Sun 05:09:36 PM 29.8806 -94.5172 96° East 392 451 15,100 1,597 Climbing Houston Center
Sun 05:10:38 PM 29.8661 -94.3628 96° East 404 465 16,900 1,597 Climbing Houston Center
Sun 05:11:40 PM 29.8736 -94.2347 86° East 407 468 18,400 1,152 Climbing Houston Center
Sun 05:12:43 PM 29.8925 -94.1217 79° East 410 472 19,300 1,210 Climbing Houston Center
Sun 05:13:44 PM 29.9258 -93.9656 76° East 418 481 20,900 1,415 Climbing Houston Center
Sun 05:14:46 PM 29.9575 -93.8344 74° East 425 489 22,200 1,355 Climbing Houston Center
Sun 05:15:48 PM 29.9894 -93.7044 74° East 425 489 23,700 1,500 Climbing Houston Center
Sun 05:16:50 PM 30.0200 -93.5761 75° East 421 484 25,300 1,742 Climbing Houston Center
Sun 05:17:52 PM 30.0553 -93.4253 75° East 414 476 27,300 1,645 Climbing Houston Center
Sun 05:18:54 PM 30.0839 -93.3017 75° East 405 466 28,700 1,296 Climbing Houston Center
Sun 05:19:57 PM 30.1164 -93.1814 73° East 399 459 30,000 1,248 Climbing Houston Center
Sun 05:20:59 PM 30.1661 -93.0722 62° Northeast 389 448 31,300 968 Climbing Houston Center
Sun 05:22:01 PM 30.2158 -92.9614 63° Northeast 391 450 32,000 823 Climbing Houston Center
Sun 05:23:03 PM 30.2786 -92.8222 62° Northeast 408 470 33,000 774 Climbing Houston Center
Sun 05:24:05 PM 30.3325 -92.7022 62° Northeast 419 482 33,600 532 Climbing Houston Center
Sun 05:25:07 PM 30.3867 -92.5778 63° Northeast 432 497 34,100 581 Climbing Houston Center
Sun 05:26:09 PM 30.4439 -92.4517 62° Northeast 442 509 34,800 435 Climbing Houston Center
Sun 05:27:11 PM 30.5050 -92.3119 63° Northeast 454 522 35,000 97 Climbing Houston Center
Sun 05:28:13 PM 30.5642 -92.1756 63° Northeast 474 545 35,000  Level Houston Center
Sun 05:29:15 PM 30.6261 -92.0353 63° Northeast 489 563 35,000  Level Houston Center
Sun 05:30:17 PM 30.7008 -91.8661 63° Northeast 493 567 35,000  Level Houston Center
Sun 05:31:20 PM 30.7622 -91.7256 63° Northeast 492 566 35,000  Level Houston Center
Sun 05:32:22 PM 30.8239 -91.5847 63° Northeast 491 565 35,000  Level Houston Center
Sun 05:33:24 PM 30.8858 -91.4417 63° Northeast 496 571 35,000  Level Houston Center
Sun 05:34:26 PM 30.9461 -91.3006 63° Northeast 490 564 35,000  Level Houston Center
Sun 05:35:28 PM 31.0194 -91.1306 63° Northeast 493 567 35,000  Level Houston Center
Sun 05:36:30 PM 31.0803 -90.9881 63° Northeast 492 566 35,000  Level Houston Center
Sun 05:37:32 PM 31.1414 -90.8456 63° Northeast 491 565 35,000 242 Level Houston Center
Sun 05:38:34 PM 31.2019 -90.7033 64° Northeast 488 562 35,500 774 Climbing Houston Center
Sun 05:39:36 PM 31.2603 -90.5650 64° Northeast 478 550 36,600 726 Climbing Houston Center
Sun 05:40:38 PM 31.3167 -90.4303 64° Northeast 463 533 37,000 194 Climbing Houston Center
Sun 05:41:40 PM 31.3869 -90.2633 64° Northeast 474 545 37,000  Level Houston Center
Sun 05:42:43 PM 31.4464 -90.1192 64° Northeast 487 560 37,000  Level Houston Center
Sun 05:43:45 PM 31.5081 -89.9719 64° Northeast 499 574 37,000  Level Houston Center
Sun 05:44:47 PM 31.5692 -89.8236 64° Northeast 503 579 37,000  Level Houston Center
Sun 05:45:49 PM 31.6297 -89.6769 64° Northeast 500 575 37,000  Level Houston Center
Sun 05:46:51 PM 31.6942 -89.5194 64° Northeast 503 579 37,000  Level Houston Center
Sun 05:47:56 PM 31.7597 -89.3606 64° Northeast 491 565 37,000  Level Memphis Center
Sun 05:48:56 PM 31.8211 -89.2108 64° Northeast 491 565 37,000  Level Memphis Center
Sun 05:49:56 PM 31.8781 -89.0633 66° East 486 559 37,000  Level Memphis Center
Sun 05:51:51 PM 32.0028 -88.7606 64° Northeast 498 573 37,000  Level Atlanta Center
Sun 05:52:51 PM 32.0628 -88.6069 65° Northeast 503 579 37,000  Level Atlanta Center
Sun 05:53:51 PM 32.1244 -88.4603 64° Northeast 503 579 37,000  Level Atlanta Center
Sun 05:54:51 PM 32.1861 -88.3089 64° Northeast 503 579 37,000  Level Atlanta Center
Sun 05:55:51 PM 32.2458 -88.1544 65° Northeast 503 579 37,000  Level Atlanta Center
Sun 05:56:51 PM 32.3050 -88.0050 65° Northeast 503 579 37,000  Level Atlanta Center
Sun 05:57:51 PM 32.3639 -87.8528 65° Northeast 503 579 37,000  Level Atlanta Center
Sun 05:58:51 PM 32.4228 -87.7003 65° Northeast 503 579 37,000  Level Atlanta Center
Sun 05:59:51 PM 32.4792 -87.5547 65° Northeast 516 594 37,000  Level Atlanta Center
Sun 06:00:51 PM 32.5356 -87.4019 66° East 516 594 37,000  Level Atlanta Center
Sun 06:01:51 PM 32.5983 -87.2442 65° Northeast 516 594 37,000  Level Atlanta Center
Sun 06:02:51 PM 32.6589 -87.0833 66° East 516 594 37,000  Level Atlanta Center
Sun 06:03:51 PM 32.7189 -86.9250 66° East 516 594 37,000  Level Atlanta Center
Sun 06:04:51 PM 32.7811 -86.7567 66° East 516 594 37,000  Level Atlanta Center
Sun 06:05:51 PM 32.8431 -86.5903 66° East 521 600 37,000  Level Atlanta Center
Sun 06:06:51 PM 32.9069 -86.4289 65° Northeast 521 600 37,000  Level Atlanta Center
Sun 06:07:51 PM 32.9642 -86.2694 67° East 516 594 37,000  Level Atlanta Center
Sun 06:08:51 PM 33.0256 -86.1075 66° East 521 600 37,000  Level Atlanta Center
Sun 06:09:51 PM 33.0844 -85.9403 67° East 527 606 37,000  Level Atlanta Center
Sun 06:10:51 PM 33.1433 -85.7828 66° East 532 612 37,000  Level Atlanta Center
Sun 06:11:51 PM 33.1914 -85.6200 71° East 532 612 37,000  Level Atlanta Center
Sun 06:12:51 PM 33.2183 -85.4517 79° East 517 595 37,000  Level Atlanta Center
Sun 06:13:51 PM 33.2453 -85.2858 79° East 507 583 37,000  Level Atlanta Center
Sun 06:14:51 PM 33.2742 -85.1122 79° East 512 589 37,000  Level Atlanta Center
Sun 06:15:51 PM 33.2983 -84.9461 80° East 517 595 37,000  Level Atlanta Center
Sun 06:16:51 PM 33.3267 -84.7747 79° East 523 602 37,000  Level Atlanta Center
Sun 06:17:51 PM 33.3525 -84.6033 80° East 523 602 37,000  Level Atlanta Center
Sun 06:18:51 PM 33.3761 -84.4492 80° East 523 602 37,000  Level Atlanta Center
Sun 06:19:51 PM 33.4017 -84.2803 80° East 523 602 37,000  Level Atlanta Center
Sun 06:20:51 PM 33.4269 -84.1111 80° East 523 602 37,000  Level Atlanta Center
Sun 06:21:51 PM 33.4519 -83.9417 80° East 518 596 37,000  Level Atlanta Center
Sun 06:22:51 PM 33.4767 -83.7747 80° East 518 596 37,000  Level Atlanta Center
Sun 06:23:51 PM 33.5014 -83.6128 80° East 499 574 37,000  Level Atlanta Center
Sun 06:24:51 PM 33.5256 -83.4483 80° East 499 574 37,000 -450 Level Atlanta Center
Sun 06:25:51 PM 33.5478 -83.2836 81° East 506 582 36,100 -950 Descending Atlanta Center
Sun 06:26:51 PM 33.5736 -83.1089 80° East 521 600 35,100 -850 Descending Atlanta Center
Sun 06:27:51 PM 33.5994 -82.9414 79° East 521 600 34,400 -850 Descending Atlanta Center
Sun 06:28:51 PM 33.6247 -82.7564 81° East 521 600 33,400 -700 Descending Atlanta Center
Sun 06:29:51 PM 33.6500 -82.5839 80° East 521 600 33,000 -200 Descending Atlanta Center
Sun 06:30:51 PM 33.6731 -82.4189 80° East 513 590 33,000  Level Atlanta Center
Sun 06:32:56 PM 33.7211 -82.0811 80° East 511 588 33,000  Level Jacksonville Center
Sun 06:33:56 PM 33.7639 -81.9233 72° East 501 577 33,000  Level Jacksonville Center
Sun 06:34:56 PM 33.8439 -81.7797 56° Northeast 501 577 33,000 -233 Level Jacksonville Center
Sun 06:36:00 PM 33.9217 -81.6497 54° Northeast  Level FlightAware Approximate
Sun 06:36:56 PM 34.0019 -81.4922 54° Northeast 504 580 32,300  Level Jacksonville Center
Sun 06:37:56 PM 34.0836 -81.3531 55° Northeast 509 586 31,000 -1,400 Descending Jacksonville Center
Sun 06:38:56 PM 34.1592 -81.2111 57° Northeast 509 586 29,500 -1,500 Descending Jacksonville Center
Sun 06:39:56 PM 34.2364 -81.0742 56° Northeast 509 586 28,000 -1,250 Descending Jacksonville Center
Sun 06:40:56 PM 34.3114 -80.9292 58° Northeast 482 555 27,000 -500 Descending Jacksonville Center
Sun 06:41:56 PM 34.3864 -80.7917 57° Northeast 465 535 27,000 -200 Level Jacksonville Center
Sun 06:42:56 PM 34.4614 -80.6639 55° Northeast 470 541 26,600 -700 Descending Jacksonville Center
Sun 06:43:56 PM 34.5339 -80.5258 57° Northeast 470 541 25,600 -1,033 Descending Jacksonville Center
Sun 06:46:25 PM 34.7133 -80.1903 57° Northeast 470 541 23,000 -746 Descending Washington Center
Sun 06:47:25 PM 34.7872 -80.0631 55° Northeast 460 529 23,000  Level Washington Center
Sun 06:48:25 PM 34.8719 -79.9689 42° Northeast 454 522 23,000 -150 Level Washington Center
Sun 06:49:25 PM 34.9633 -79.8675 42° Northeast 441 507 22,700 -700 Descending Washington Center
Sun 06:50:25 PM 35.0567 -79.7658 42° Northeast 441 507 21,600 -850 Descending Washington Center
Sun 06:51:25 PM 35.1519 -79.6617 42° Northeast 446 513 21,000 -350 Descending Washington Center
Sun 06:52:25 PM 35.2556 -79.5600 39° Northeast 441 507 20,900 -684 Descending Washington Center
Sun 06:52:44 PM 35.2875 -79.5411 26° Northeast 429 494 20,100 -1,959 Descending Washington Center
Sun 06:53:14 PM 35.3431 -79.5031 29° Northeast 410 472 19,300 -1,451 Descending Washington Center
Sun 06:54:15 PM 35.4328 -79.4414 29° Northeast 364 419 17,900 -1,475 Descending Washington Center
Sun 06:55:16 PM 35.5119 -79.3736 35° Northeast 349 402 16,300 -1,736 Descending Washington Center
Sun 06:56:16 PM 35.5692 -79.2794 53° Northeast 328 377 14,400 -2,140 Descending Washington Center
Sun 06:57:25 PM 35.6242 -79.1900 53° Northeast 319 367 11,700 -2,331 Descending Washington Center
Sun 06:58:17 PM 35.6725 -79.1128 52° Northeast 305 351 9,700 -1,699 Descending Washington Center
Sun 06:59:18 PM 35.7183 -79.0356 54° Northeast 272 313 8,500 -836 Descending Washington Center
Sun 07:00:19 PM 35.7722 -78.9814 39° Northeast 241 277 8,000 -248 Descending Washington Center
Sun 07:01:19 PM 35.8358 -78.9408 27° Northeast 256 295 8,000 -143 Level Washington Center
Sun 07:02:25 PM 35.8939 -78.8792 41° Northeast 247 284 7,700 -797 Descending Washington Center
Sun 07:03:27 PM 35.9478 -78.8222 41° Northeast 250 288 6,300 -1,574 Descending Washington Center
Sun 07:04:27 PM 35.9992 -78.7731 38° Northeast 239 275 4,500 -1,636 Descending Washington Center
Sun 07:05:28 PM 36.0133 -78.7042 76° East 218 251 3,000 -1,140 Descending Washington Center
Sun 07:06:28 PM 35.9611 -78.7125 187° South 185 213 2,200 -843 Descending Washington Center
Sun 07:07:29 PM 35.9247 -78.7419 213° Southwest 146 168 1,300 -885 Descending Washington Center

Login

Don't have an account? Register now (free) for customized features, flight alerts, and more!